createdAt,value
2022-08-03T00:00:58.812Z,100552.03
2022-08-03T00:03:00.520Z,100558.38
2022-08-03T00:05:02.091Z,100557.19
2022-08-03T00:07:03.642Z,100558.38
2022-08-03T00:09:06.417Z,100555.22
2022-08-03T00:11:09.354Z,100553.63
2022-08-03T00:13:10.978Z,100551.28
2022-08-03T00:15:16.605Z,100553.22
2022-08-03T00:17:18.599Z,100554.44
2022-08-03T00:19:20.309Z,100553.63
2022-08-03T00:21:21.892Z,100556.38
2022-08-03T00:23:23.486Z,100552.03
2022-08-03T00:25:25.309Z,100547.28
2022-08-03T00:27:28.284Z,100554.78
2022-08-03T00:29:34.177Z,100548.44
2022-08-03T00:31:59.446Z,100545.25
2022-08-03T00:34:03.499Z,100542.13
2022-08-03T00:36:05.963Z,100548.75
2022-08-03T00:38:07.598Z,100555.81
2022-08-03T00:40:11.747Z,100552.19
2022-08-03T00:42:14.230Z,100549.38
2022-08-03T00:44:17.281Z,100546.19
2022-08-03T00:46:21.649Z,100550.88
2022-08-03T00:48:33.416Z,100546.19
2022-08-03T00:50:38.848Z,100551.69
2022-08-03T00:52:40.528Z,100551.34
2022-08-03T00:54:42.111Z,100551.72
2022-08-03T00:57:00.131Z,100544.16
2022-08-03T00:59:03.277Z,100546.09
2022-08-03T01:01:06.332Z,100544.13
2022-08-03T01:03:09.976Z,100548.28
2022-08-03T01:05:11.564Z,100551.38
2022-08-03T01:07:19.533Z,100546.66
2022-08-03T01:09:37.272Z,100549.41
2022-08-03T01:11:59.787Z,100549.34
2022-08-03T01:14:18.820Z,100541.88
2022-08-03T01:16:27.975Z,100540.72
2022-08-03T01:18:44.906Z,100546.22
2022-08-03T01:20:49.869Z,100538.28
2022-08-03T01:23:13.711Z,100546.94
2022-08-03T01:25:28.477Z,100539.03
2022-08-03T01:27:44.677Z,100541.44
2022-08-03T01:29:58.720Z,100537.13
2022-08-03T01:32:58.564Z,100527.22
2022-08-03T01:34:32.322Z,100532.34
2022-08-03T01:36:37.971Z,100529.94
2022-08-03T01:38:43.371Z,100532.72
2022-08-03T01:40:47.325Z,100526.38
2022-08-03T01:42:50.607Z,100529.97
2022-08-03T01:44:55.102Z,100521.28
2022-08-03T01:46:59.267Z,100530.72
2022-08-03T01:49:09.412Z,100525.25
2022-08-03T01:51:13.427Z,100521.66
2022-08-03T01:53:16.663Z,100523.97
2022-08-03T01:55:20.077Z,100523.56
2022-08-03T01:57:23.747Z,100526.28
2022-08-03T01:59:26.367Z,100523.06
2022-08-03T02:02:28.663Z,100525.00
2022-08-03T02:04:00.935Z,100522.84
2022-08-03T02:07:00.729Z,100520.38
2022-08-03T02:08:26.831Z,100507.69
2022-08-03T02:10:34.303Z,100514.31
2022-08-03T02:12:39.727Z,100512.34
2022-08-03T02:14:43.262Z,100506.81
2022-08-03T02:16:48.994Z,100508.38
2022-08-03T02:18:51.510Z,100515.47
2022-08-03T02:20:54.462Z,100512.75
2022-08-03T02:22:56.022Z,100515.47
2022-08-03T02:24:57.663Z,100510.31
2022-08-03T02:27:01.076Z,100517.50
2022-08-03T02:29:11.267Z,100511.63
2022-08-03T02:31:15.596Z,100512.44
2022-08-03T02:33:22.223Z,100515.97
2022-08-03T02:35:26.525Z,100509.63
2022-08-03T02:37:32.359Z,100517.84
2022-08-03T02:39:35.706Z,100518.28
2022-08-03T02:41:43.277Z,100517.06
2022-08-03T02:44:05.973Z,100520.66
2022-08-03T02:46:10.851Z,100516.72
2022-08-03T02:48:17.268Z,100517.53
2022-08-03T02:50:21.750Z,100517.06
2022-08-03T02:52:27.942Z,100512.31
2022-08-03T02:54:32.580Z,100517.81
2022-08-03T02:56:34.676Z,100517.38
2022-08-03T02:58:38.583Z,100520.50
2022-08-03T03:00:43.867Z,100509.41
2022-08-03T03:02:46.192Z,100507.84
2022-08-03T03:05:53.088Z,100510.16
2022-08-03T03:07:13.862Z,100507.75
2022-08-03T03:09:17.380Z,100512.88
2022-08-03T03:11:21.701Z,100510.81
2022-08-03T03:13:24.505Z,100510.00
2022-08-03T03:15:27.671Z,100513.97
2022-08-03T03:17:31.650Z,100508.41
2022-08-03T03:19:33.789Z,100512.34
2022-08-03T03:21:37.492Z,100513.94
2022-08-03T03:23:41.948Z,100510.75
2022-08-03T03:25:43.707Z,100506.78
2022-08-03T03:27:49.405Z,100502.00
2022-08-03T03:29:51.735Z,100496.84
2022-08-03T03:31:53.559Z,100498.38
2022-08-03T03:33:57.401Z,100504.28
2022-08-03T03:35:59.651Z,100504.56
2022-08-03T03:38:01.275Z,100499.78
2022-08-03T03:40:05.557Z,100505.72
2022-08-03T03:42:07.314Z,100502.59
2022-08-03T03:44:09.010Z,100499.06
2022-08-03T03:46:12.831Z,100503.69
2022-08-03T03:48:14.527Z,100506.06
2022-08-03T03:50:18.383Z,100507.31
2022-08-03T03:52:19.957Z,100505.59
2022-08-03T03:54:21.714Z,100511.06
2022-08-03T03:56:28.957Z,100507.09
2022-08-03T03:58:32.491Z,100507.09
2022-08-03T04:00:34.526Z,100511.44
2022-08-03T04:02:36.501Z,100504.34
2022-08-03T04:04:38.753Z,100503.22
2022-08-03T04:06:40.349Z,100503.28
2022-08-03T04:08:41.935Z,100504.44
2022-08-03T04:10:54.344Z,100503.66
2022-08-03T04:13:00.349Z,100509.16
2022-08-03T04:15:04.454Z,100505.25
2022-08-03T04:17:09.933Z,100508.81
2022-08-03T04:19:18.547Z,100510.41
2022-08-03T04:21:22.534Z,100511.97
2022-08-03T04:23:27.652Z,100517.09
2022-08-03T04:25:32.823Z,100512.81
2022-08-03T04:27:38.149Z,100510.84
2022-08-03T04:29:48.568Z,100512.81
2022-08-03T04:31:51.432Z,100519.84
2022-08-03T04:33:54.833Z,100526.16
2022-08-03T04:36:02.695Z,100517.09
2022-08-03T04:38:07.479Z,100525.34
2022-08-03T04:40:13.327Z,100521.91
2022-08-03T04:42:15.665Z,100526.03
2022-08-03T04:44:19.498Z,100532.38
2022-08-03T04:46:25.858Z,100531.25
2022-08-03T04:48:28.329Z,100529.56
2022-08-03T04:50:30.558Z,100522.66
2022-08-03T04:52:32.980Z,100527.53
2022-08-03T04:54:39.517Z,100530.53
2022-08-03T04:56:41.379Z,100535.50
2022-08-03T04:58:43.000Z,100530.91
2022-08-03T05:00:44.547Z,100541.19
2022-08-03T05:02:47.652Z,100532.63
2022-08-03T05:04:49.731Z,100529.63
2022-08-03T05:06:54.797Z,100530.41
2022-08-03T05:08:57.077Z,100530.47
2022-08-03T05:10:58.970Z,100524.63
2022-08-03T05:13:00.963Z,100523.13
2022-08-03T05:15:03.268Z,100529.53
2022-08-03T05:17:05.035Z,100526.81
2022-08-03T05:19:07.981Z,100524.91
2022-08-03T05:21:09.871Z,100525.72
2022-08-03T05:23:11.449Z,100526.06
2022-08-03T05:25:16.937Z,100533.53
2022-08-03T05:27:20.790Z,100536.19
2022-08-03T05:29:22.374Z,100539.38
2022-08-03T05:31:23.914Z,100535.09
2022-08-03T05:33:25.668Z,100531.66
2022-08-03T05:36:01.895Z,100534.44
2022-08-03T05:37:54.765Z,100527.59
2022-08-03T05:39:56.580Z,100534.31
2022-08-03T05:41:58.176Z,100535.16
2022-08-03T05:43:59.732Z,100533.63
2022-08-03T05:46:12.492Z,100539.56
2022-08-03T05:48:14.854Z,100541.56
2022-08-03T05:50:17.252Z,100545.50
2022-08-03T05:52:20.136Z,100543.16
2022-08-03T05:54:21.845Z,100542.00
2022-08-03T05:56:52.231Z,100547.53
2022-08-03T05:58:53.836Z,100547.53
2022-08-03T06:00:55.642Z,100546.34
2022-08-03T06:02:57.224Z,100548.34
2022-08-03T06:04:58.851Z,100545.59
2022-08-03T06:07:00.422Z,100538.50
2022-08-03T06:09:03.450Z,100538.91
2022-08-03T06:11:05.079Z,100542.84
2022-08-03T06:13:06.779Z,100538.13
2022-08-03T06:15:11.405Z,100542.44
2022-08-03T06:17:13.328Z,100541.59
2022-08-03T06:19:16.792Z,100547.53
2022-08-03T06:21:18.461Z,100547.53
2022-08-03T06:23:20.435Z,100547.94
2022-08-03T06:25:23.358Z,100538.50
2022-08-03T06:27:31.407Z,100547.13
2022-08-03T06:29:39.042Z,100540.03
2022-08-03T06:31:40.667Z,100540.78
2022-08-03T06:34:31.589Z,100545.91
2022-08-03T06:36:04.499Z,100538.88
2022-08-03T06:38:06.131Z,100539.31
2022-08-03T06:40:08.771Z,100537.00
2022-08-03T06:42:17.004Z,100546.19
2022-08-03T06:44:18.818Z,100547.41
2022-08-03T06:46:20.610Z,100547.06
2022-08-03T06:48:22.192Z,100557.34
2022-08-03T06:50:26.351Z,100541.53
2022-08-03T06:52:37.682Z,100549.88
2022-08-03T06:54:40.133Z,100551.84
2022-08-03T06:56:41.762Z,100550.69
2022-08-03T06:58:44.693Z,100549.50
2022-08-03T07:00:46.359Z,100556.25
2022-08-03T07:02:48.143Z,100554.25
2022-08-03T07:04:54.182Z,100557.81
2022-08-03T07:06:55.801Z,100551.88
2022-08-03T07:08:59.596Z,100561.34
2022-08-03T07:11:01.690Z,100552.69
2022-08-03T07:13:03.620Z,100554.63
2022-08-03T07:15:08.182Z,100559.00
2022-08-03T07:17:21.843Z,100551.88
2022-08-03T07:19:23.385Z,100558.97
2022-08-03T07:21:25.007Z,100551.50
2022-08-03T07:23:26.577Z,100555.81
2022-08-03T07:25:28.257Z,100564.53
2022-08-03T07:27:29.892Z,100562.16
2022-08-03T07:29:31.499Z,100553.47
2022-08-03T07:31:37.714Z,100556.22
2022-08-03T07:33:39.364Z,100547.13
2022-08-03T07:35:41.113Z,100555.81
2022-08-03T07:37:42.688Z,100551.06
2022-08-03T07:39:55.773Z,100553.44
2022-08-03T07:41:57.385Z,100548.69
2022-08-03T07:43:58.974Z,100547.91
2022-08-03T07:46:02.904Z,100547.13
2022-08-03T07:48:10.208Z,100556.22
2022-08-03T07:50:13.939Z,100546.34
2022-08-03T07:52:15.754Z,100550.28
2022-08-03T07:54:17.481Z,100551.84
2022-08-03T07:56:19.059Z,100551.06
2022-08-03T07:58:24.197Z,100552.66
2022-08-03T08:00:26.151Z,100546.72
2022-08-03T08:02:27.824Z,100556.56
2022-08-03T08:04:30.700Z,100544.69
2022-08-03T08:06:32.301Z,100548.66
2022-08-03T08:08:33.885Z,100549.84
2022-08-03T08:10:35.810Z,100547.44
2022-08-03T08:12:37.906Z,100547.06
2022-08-03T08:14:39.490Z,100545.88
2022-08-03T08:16:41.089Z,100544.28
2022-08-03T08:18:42.729Z,100551.00
2022-08-03T08:20:45.779Z,100543.47
2022-08-03T08:22:47.464Z,100535.16
2022-08-03T08:24:49.065Z,100531.56
2022-08-03T08:26:52.784Z,100531.97
2022-08-03T08:28:54.528Z,100532.78
2022-08-03T08:30:56.132Z,100530.41
2022-08-03T08:32:57.971Z,100525.66
2022-08-03T08:34:59.808Z,100522.88
2022-08-03T08:37:11.565Z,100526.81
2022-08-03T08:39:13.254Z,100520.47
2022-08-03T08:41:19.052Z,100520.06
2022-08-03T08:43:20.663Z,100520.06
2022-08-03T08:45:22.286Z,100527.59
2022-08-03T08:47:26.084Z,100524.78
2022-08-03T08:49:29.336Z,100525.59
2022-08-03T08:51:54.725Z,100529.53
2022-08-03T08:54:01.265Z,100525.16
2022-08-03T08:56:04.858Z,100518.44
2022-08-03T08:58:08.179Z,100517.66
2022-08-03T09:00:12.169Z,100518.03
2022-08-03T09:02:14.036Z,100514.06
2022-08-03T09:04:15.831Z,100512.84
2022-08-03T09:06:17.505Z,100519.63
2022-08-03T09:08:19.187Z,100510.09
2022-08-03T09:10:22.151Z,100513.59
2022-08-03T09:12:42.269Z,100519.13
2022-08-03T09:15:00.840Z,100520.66
2022-08-03T09:17:05.932Z,100513.94
2022-08-03T09:19:12.294Z,100511.94
2022-08-03T09:21:30.597Z,100508.75
2022-08-03T09:23:51.767Z,100509.13
2022-08-03T09:26:04.270Z,100513.88
2022-08-03T09:28:08.527Z,100508.31
2022-08-03T09:30:33.378Z,100507.13
2022-08-03T09:32:37.329Z,100507.06
2022-08-03T09:34:39.179Z,100502.38
2022-08-03T09:36:42.724Z,100512.38
2022-08-03T09:39:01.418Z,100515.53
2022-08-03T09:41:18.190Z,100498.38
2022-08-03T09:43:20.906Z,100499.13
2022-08-03T09:45:26.328Z,100501.97
2022-08-03T09:47:29.353Z,100505.16
2022-08-03T09:49:31.147Z,100498.38
2022-08-03T09:52:32.823Z,100499.53
2022-08-03T09:53:58.704Z,100503.03
2022-08-03T09:56:34.812Z,100499.00
2022-08-03T09:58:27.325Z,100500.09
2022-08-03T10:00:28.938Z,100494.53
2022-08-03T10:02:30.602Z,100501.22
2022-08-03T10:04:32.404Z,100496.44
2022-08-03T10:06:34.036Z,100497.34
2022-08-03T10:08:35.661Z,100497.06
2022-08-03T10:10:43.150Z,100494.13
2022-08-03T10:12:46.097Z,100497.94
2022-08-03T10:14:49.290Z,100498.63
2022-08-03T10:16:50.909Z,100501.78
2022-08-03T10:18:52.601Z,100488.41
2022-08-03T10:20:59.089Z,100486.66
2022-08-03T10:23:01.601Z,100485.03
2022-08-03T10:25:06.433Z,100481.84
2022-08-03T10:27:10.136Z,100480.66
2022-08-03T10:29:17.953Z,100482.56
2022-08-03T10:31:23.867Z,100479.59
2022-08-03T10:33:51.887Z,100472.88
2022-08-03T10:35:54.450Z,100472.19
2022-08-03T10:37:59.096Z,100472.13
2022-08-03T10:40:02.513Z,100470.22
2022-08-03T10:42:05.580Z,100472.84
2022-08-03T10:44:19.535Z,100460.25
2022-08-03T10:46:22.485Z,100462.50
2022-08-03T10:48:25.258Z,100452.91
2022-08-03T10:50:27.272Z,100451.41
2022-08-03T10:52:32.971Z,100449.72
2022-08-03T10:54:42.149Z,100450.59
2022-08-03T10:56:49.722Z,100447.28
2022-08-03T10:58:57.493Z,100450.81
2022-08-03T11:01:00.113Z,100446.00
2022-08-03T11:03:08.311Z,100448.09
2022-08-03T11:05:26.393Z,100445.22
2022-08-03T11:07:27.967Z,100439.75
2022-08-03T11:09:41.093Z,100442.06
2022-08-03T11:11:43.788Z,100437.63
2022-08-03T11:13:57.902Z,100442.84
2022-08-03T11:16:06.548Z,100444.66
2022-08-03T11:18:11.729Z,100437.72
2022-08-03T11:20:13.599Z,100430.13
2022-08-03T11:22:16.735Z,100425.34
2022-08-03T11:24:51.596Z,100429.19
2022-08-03T11:27:17.388Z,100421.44
2022-08-03T11:29:30.041Z,100417.03
2022-08-03T11:31:55.909Z,100421.59
2022-08-03T11:34:08.737Z,100413.44
2022-08-03T11:36:10.336Z,100424.38
2022-08-03T11:38:12.172Z,100413.78
2022-08-03T11:40:33.476Z,100409.38
2022-08-03T11:42:42.146Z,100408.81
2022-08-03T11:44:47.534Z,100409.53
2022-08-03T11:46:49.655Z,100408.81
2022-08-03T11:48:51.309Z,100406.84
2022-08-03T11:50:54.572Z,100398.84
2022-08-03T11:52:56.327Z,100404.63
2022-08-03T11:54:58.088Z,100405.06
2022-08-03T11:56:59.668Z,100398.47
2022-08-03T11:59:20.507Z,100391.19
2022-08-03T12:01:24.879Z,100397.63
2022-08-03T12:03:35.259Z,100394.75
2022-08-03T12:05:39.485Z,100396.28
2022-08-03T12:08:03.128Z,100385.19
2022-08-03T12:10:10.759Z,100386.72
2022-08-03T12:12:16.408Z,100377.13
2022-08-03T12:14:48.748Z,100383.25
2022-08-03T12:16:40.810Z,100386.25
2022-08-03T12:18:42.448Z,100384.50
2022-08-03T12:20:44.980Z,100380.50
2022-08-03T12:22:48.020Z,100377.44
2022-08-03T12:24:49.650Z,100374.22
2022-08-03T12:26:59.349Z,100374.19
2022-08-03T12:29:01.807Z,100369.00
2022-08-03T12:31:05.654Z,100367.88
2022-08-03T12:33:15.416Z,100371.03
2022-08-03T12:35:23.301Z,100369.94
2022-08-03T12:37:25.933Z,100373.97
2022-08-03T12:39:30.900Z,100363.06
2022-08-03T12:41:34.623Z,100363.22
2022-08-03T12:43:36.649Z,100364.00
2022-08-03T12:45:41.451Z,100364.41
2022-08-03T12:47:50.480Z,100362.63
2022-08-03T12:49:53.558Z,100366.09
2022-08-03T12:52:02.845Z,100357.50
2022-08-03T12:54:09.456Z,100356.72
2022-08-03T12:56:12.545Z,100357.00
2022-08-03T12:58:29.695Z,100353.56
2022-08-03T13:00:31.644Z,100352.19
2022-08-03T13:02:33.933Z,100348.25
2022-08-03T13:04:36.312Z,100351.06
2022-08-03T13:06:37.872Z,100354.19
2022-08-03T13:08:39.706Z,100338.91
2022-08-03T13:10:41.503Z,100338.91
2022-08-03T13:12:49.013Z,100350.97
2022-08-03T13:14:52.318Z,100350.88
2022-08-03T13:16:53.955Z,100342.06
2022-08-03T13:18:55.571Z,100347.03
2022-08-03T13:20:57.342Z,100344.88
2022-08-03T13:23:00.925Z,100344.13
2022-08-03T13:25:03.694Z,100343.25
2022-08-03T13:27:22.108Z,100333.41
2022-08-03T13:29:28.541Z,100337.69
2022-08-03T13:31:30.294Z,100338.41
2022-08-03T13:33:32.142Z,100334.56
2022-08-03T13:35:33.846Z,100336.75
2022-08-03T13:37:36.150Z,100330.22
2022-08-03T13:39:57.265Z,100330.16
2022-08-03T13:42:02.490Z,100323.88
2022-08-03T13:44:26.612Z,100323.38
2022-08-03T13:46:27.372Z,100329.41
2022-08-03T13:48:36.198Z,100327.97
2022-08-03T13:50:42.969Z,100321.06
2022-08-03T13:52:45.050Z,100311.41
2022-08-03T13:54:47.156Z,100314.34
2022-08-03T13:56:49.070Z,100316.75
2022-08-03T13:58:53.645Z,100308.31
2022-08-03T14:00:55.543Z,100317.47
2022-08-03T14:03:16.576Z,100304.06
2022-08-03T14:05:18.291Z,100295.88
2022-08-03T14:07:20.185Z,100297.38
2022-08-03T14:09:22.310Z,100311.28
2022-08-03T14:11:24.277Z,100302.59
2022-08-03T14:13:45.904Z,100298.59
2022-08-03T14:15:49.749Z,100297.44
2022-08-03T14:17:52.926Z,100282.31
2022-08-03T14:19:55.946Z,100289.31
2022-08-03T14:22:06.109Z,100290.91
2022-08-03T14:24:08.781Z,100289.16
2022-08-03T14:26:10.987Z,100282.53
2022-08-03T14:28:12.691Z,100282.69
2022-08-03T14:30:14.501Z,100282.88
2022-08-03T14:32:16.191Z,100278.63
2022-08-03T14:34:17.891Z,100281.25
2022-08-03T14:36:20.907Z,100279.63
2022-08-03T14:38:22.989Z,100274.94
2022-08-03T14:40:24.891Z,100278.31
2022-08-03T14:42:26.583Z,100266.16
2022-08-03T14:44:28.218Z,100271.81
2022-08-03T14:46:30.625Z,100275.22
2022-08-03T14:50:26.520Z,100270.88
2022-08-03T14:50:54.481Z,100271.09
2022-08-03T14:52:57.647Z,100274.94
2022-08-03T14:54:59.921Z,100277.69
2022-08-03T14:57:01.643Z,100278.59
2022-08-03T14:59:03.273Z,100276.25
2022-08-03T15:02:04.628Z,100268.91
2022-08-03T15:03:26.768Z,100274.34
2022-08-03T15:05:28.610Z,100267.13
2022-08-03T15:07:30.540Z,100256.97
2022-08-03T15:09:33.750Z,100261.72
2022-08-03T15:11:35.506Z,100261.38
2022-08-03T15:13:37.090Z,100255.78
2022-08-03T15:15:38.763Z,100255.16
2022-08-03T15:17:42.980Z,100258.94
2022-08-03T15:20:26.513Z,100250.84
2022-08-03T15:22:25.332Z,100241.56
2022-08-03T15:24:37.883Z,100237.63
2022-08-03T15:26:41.785Z,100240.88
2022-08-03T15:28:43.714Z,100242.38
2022-08-03T15:30:45.340Z,100240.50
2022-08-03T15:32:47.319Z,100234.13
2022-08-03T15:34:50.733Z,100232.38
2022-08-03T15:36:52.625Z,100227.13
2022-08-03T15:38:54.350Z,100222.34
2022-08-03T15:40:57.829Z,100230.72
2022-08-03T15:43:00.713Z,100231.63
2022-08-03T15:45:02.370Z,100226.03
2022-08-03T15:47:04.026Z,100222.69
2022-08-03T15:49:05.659Z,100215.88
2022-08-03T15:51:08.155Z,100219.00
2022-08-03T15:53:09.753Z,100222.97
2022-08-03T15:55:16.823Z,100228.22
2022-08-03T15:57:20.576Z,100223.56
2022-08-03T15:59:22.317Z,100213.53
2022-08-03T16:01:24.789Z,100217.34
2022-08-03T16:03:26.447Z,100216.34
2022-08-03T16:05:28.294Z,100207.06
2022-08-03T16:07:29.891Z,100208.84
2022-08-03T16:09:43.200Z,100208.19
2022-08-03T16:11:45.404Z,100199.88
2022-08-03T16:14:13.655Z,100206.63
2022-08-03T16:16:10.366Z,100206.94
2022-08-03T16:18:11.972Z,100208.19
2022-08-03T16:20:29.058Z,100205.69
2022-08-03T16:22:41.598Z,100194.63
2022-08-03T16:24:46.129Z,100204.81
2022-08-03T16:26:47.777Z,100201.47
2022-08-03T16:28:50.728Z,100205.84
2022-08-03T16:30:52.364Z,100199.00
2022-08-03T16:32:54.077Z,100190.16
2022-08-03T16:34:55.707Z,100197.00
2022-08-03T16:36:57.319Z,100197.34
2022-08-03T16:38:59.487Z,100199.66
2022-08-03T16:41:01.117Z,100198.09
2022-08-03T16:43:10.500Z,100193.72
2022-08-03T16:45:21.639Z,100191.63
2022-08-03T16:47:23.347Z,100193.94
2022-08-03T16:49:54.352Z,100196.28
2022-08-03T16:51:50.327Z,100195.53
2022-08-03T16:54:07.986Z,100188.91
2022-08-03T16:56:13.906Z,100192.38
2022-08-03T16:58:15.528Z,100186.13
2022-08-03T17:00:34.235Z,100190.16
2022-08-03T17:02:48.224Z,100186.59
2022-08-03T17:04:50.676Z,100192.19
2022-08-03T17:06:54.431Z,100193.09
2022-08-03T17:08:56.234Z,100187.72
2022-08-03T17:10:57.845Z,100192.75
2022-08-03T17:13:01.181Z,100186.41
2022-08-03T17:15:03.875Z,100181.13
2022-08-03T17:17:16.322Z,100182.25
2022-08-03T17:19:21.152Z,100186.69
2022-08-03T17:21:29.524Z,100181.13
2022-08-03T17:23:41.084Z,100183.59
2022-08-03T17:26:02.439Z,100182.59
2022-08-03T17:28:48.946Z,100179.66
2022-08-03T17:30:27.918Z,100182.69
2022-08-03T17:32:34.058Z,100175.88
2022-08-03T17:34:38.421Z,100183.03
2022-08-03T17:37:03.688Z,100181.81
2022-08-03T17:39:03.975Z,100184.25
2022-08-03T17:41:10.833Z,100176.31
2022-08-03T17:44:16.669Z,100182.81
2022-08-03T17:45:52.047Z,100177.78
2022-08-03T17:47:57.089Z,100184.59
2022-08-03T17:50:01.039Z,100191.31
2022-08-03T17:52:05.513Z,100186.50
2022-08-03T17:54:18.087Z,100182.94
2022-08-03T17:56:42.649Z,100188.19
2022-08-03T17:58:56.330Z,100189.06
2022-08-03T18:00:59.675Z,100194.28
2022-08-03T18:03:11.806Z,100191.50
2022-08-03T18:05:17.844Z,100200.44
2022-08-03T18:07:41.199Z,100204.44
2022-08-03T18:10:04.944Z,100196.97
2022-08-03T18:12:16.811Z,100198.63
2022-08-03T18:14:27.452Z,100205.66
2022-08-03T18:16:34.279Z,100204.06
2022-08-03T18:18:39.163Z,100204.50
2022-08-03T18:20:48.510Z,100192.28
2022-08-03T18:22:50.260Z,100198.75
2022-08-03T18:24:53.301Z,100193.16
2022-08-03T18:26:58.025Z,100201.19
2022-08-03T18:29:02.407Z,100195.28
2022-08-03T18:31:06.001Z,100202.88
2022-08-03T18:34:19.337Z,100199.84
2022-08-03T18:35:52.929Z,100197.91
2022-08-03T18:37:56.086Z,100199.25
2022-08-03T18:40:07.374Z,100194.22
2022-08-03T18:42:09.438Z,100196.66
2022-08-03T18:44:53.027Z,100200.44
2022-08-03T18:46:50.350Z,100198.50
2022-08-03T18:48:59.967Z,100202.19
2022-08-03T18:51:28.430Z,100192.31
2022-08-03T18:54:02.865Z,100199.53
2022-08-03T18:56:10.723Z,100199.19
2022-08-03T18:58:19.128Z,100194.53
2022-08-03T19:00:24.949Z,100195.38
2022-08-03T19:02:48.846Z,100200.97
2022-08-03T19:04:54.276Z,100201.72
2022-08-03T19:07:01.041Z,100202.19
2022-08-03T19:09:05.641Z,100212.56
2022-08-03T19:11:17.394Z,100208.97
2022-08-03T19:13:31.079Z,100213.00
2022-08-03T19:15:41.661Z,100211.88
2022-08-03T19:17:55.515Z,100215.97
2022-08-03T19:20:02.565Z,100213.69
2022-08-03T19:22:05.733Z,100217.78
2022-08-03T19:24:13.860Z,100225.03
2022-08-03T19:26:30.310Z,100220.69
2022-08-03T19:28:34.328Z,100230.25
2022-08-03T19:30:38.775Z,100223.22
2022-08-03T19:32:48.199Z,100226.44
2022-08-03T19:34:51.383Z,100223.72
2022-08-03T19:36:55.294Z,100232.97
2022-08-03T19:38:59.325Z,100228.69
2022-08-03T19:41:03.737Z,100230.41
2022-08-03T19:43:09.890Z,100228.91
2022-08-03T19:45:17.097Z,100230.56
2022-08-03T19:47:28.271Z,100232.19
2022-08-03T19:52:02.824Z,100222.81
2022-08-03T19:54:05.275Z,100219.31
2022-08-03T19:56:08.837Z,100230.13
2022-08-03T19:58:17.599Z,100225.50
2022-08-03T20:00:32.679Z,100235.84
2022-08-03T20:02:40.926Z,100233.84
2022-08-03T20:04:44.376Z,100229.56
2022-08-03T20:06:47.557Z,100224.06
2022-08-03T20:08:52.135Z,100229.34
2022-08-03T20:10:54.246Z,100224.31
2022-08-03T20:12:58.026Z,100234.69
2022-08-03T20:14:59.868Z,100230.88
2022-08-03T20:17:03.123Z,100232.94
2022-08-03T20:19:04.790Z,100233.72
2022-08-03T20:21:16.938Z,100233.78
2022-08-03T20:23:19.723Z,100237.44
2022-08-03T20:25:38.006Z,100236.72
2022-08-03T20:28:08.087Z,100229.22
2022-08-03T20:30:09.855Z,100231.72
2022-08-03T20:32:11.516Z,100227.88
2022-08-03T20:34:13.169Z,100239.50
2022-08-03T20:36:19.187Z,100235.56
2022-08-03T20:38:27.330Z,100236.41
2022-08-03T20:40:29.121Z,100230.50
2022-08-03T20:42:30.988Z,100230.16
2022-08-03T20:44:33.074Z,100229.84
2022-08-03T20:46:53.455Z,100230.69
2022-08-03T20:48:58.848Z,100222.34
2022-08-03T20:51:00.940Z,100225.53
2022-08-03T20:53:02.877Z,100223.09
2022-08-03T20:57:33.072Z,100231.88
2022-08-03T20:59:50.338Z,100225.19
2022-08-03T21:01:54.753Z,100230.75
2022-08-03T21:03:56.524Z,100223.97
2022-08-03T21:06:01.602Z,100216.84
2022-08-03T21:08:07.133Z,100217.69
2022-08-03T21:10:12.026Z,100212.13
2022-08-03T21:12:26.799Z,100213.41
2022-08-03T21:13:03.004Z,100225.50
2022-08-03T21:13:14.174Z,100225.13
2022-08-03T21:14:38.989Z,100210.41
2022-08-03T21:16:44.468Z,100216.56
2022-08-03T21:18:50.797Z,100214.19
2022-08-03T21:20:52.990Z,100206.66
2022-08-03T21:22:56.451Z,100215.84
2022-08-03T21:25:03.925Z,100214.25
2022-08-03T21:27:06.350Z,100209.97
2022-08-03T21:29:08.316Z,100210.81
2022-08-03T21:31:10.902Z,100206.50
2022-08-03T21:33:13.204Z,100208.13
2022-08-03T21:35:16.723Z,100210.56
2022-08-03T21:37:18.432Z,100205.34
2022-08-03T21:39:20.139Z,100212.13
2022-08-03T21:41:21.884Z,100207.97
2022-08-03T21:43:23.770Z,100208.19
2022-08-03T21:45:25.585Z,100209.44
2022-08-03T21:47:27.448Z,100204.72
2022-08-03T21:50:04.433Z,100206.72
2022-08-03T21:51:57.730Z,100210.34
2022-08-03T21:54:04.510Z,100206.34
2022-08-03T21:56:08.242Z,100201.94
2022-08-03T21:58:13.297Z,100205.88
2022-08-03T22:00:17.824Z,100205.88
2022-08-03T22:02:24.300Z,100209.84
2022-08-03T22:04:50.817Z,100205.50
2022-08-03T22:06:49.291Z,100200.44
2022-08-03T22:08:52.632Z,100204.16
2022-08-03T22:10:54.495Z,100198.25
2022-08-03T22:12:56.116Z,100208.56
2022-08-03T22:15:01.418Z,100215.38
2022-08-03T22:17:06.289Z,100213.16
2022-08-03T22:19:08.734Z,100213.97
2022-08-03T22:21:12.357Z,100208.00
2022-08-03T22:23:15.613Z,100209.63
2022-08-03T22:25:23.692Z,100207.28
2022-08-03T22:27:26.663Z,100206.19
2022-08-03T22:29:28.951Z,100203.47
2022-08-03T22:31:58.095Z,100201.94
2022-08-03T22:33:54.505Z,100199.19
2022-08-03T22:35:57.983Z,100204.72
2022-08-03T22:38:03.769Z,100203.16
2022-08-03T22:40:08.675Z,100204.72
2022-08-03T22:42:12.554Z,100206.31
2022-08-03T22:44:14.595Z,100206.38
2022-08-03T22:46:20.758Z,100198.53
2022-08-03T22:48:22.661Z,100206.84
2022-08-03T22:50:32.842Z,100212.41
2022-08-03T22:52:37.847Z,100206.44
2022-08-03T22:54:40.243Z,100206.00
2022-08-03T22:56:42.607Z,100210.47
2022-08-03T22:58:45.562Z,100200.63
2022-08-03T23:00:53.855Z,100210.47
2022-08-03T23:02:58.386Z,100206.13
2022-08-03T23:05:04.355Z,100206.50
2022-08-03T23:07:08.058Z,100208.97
2022-08-03T23:09:10.959Z,100210.16
2022-08-03T23:11:15.268Z,100208.75
2022-08-03T23:13:18.084Z,100205.94
2022-08-03T23:15:23.682Z,100211.88
2022-08-03T23:17:27.091Z,100210.28
2022-08-03T23:19:30.241Z,100207.53
2022-08-03T23:22:00.243Z,100213.13
2022-08-03T23:23:59.226Z,100224.59
2022-08-03T23:26:02.744Z,100226.19
2022-08-03T23:28:06.167Z,100225.81
2022-08-03T23:30:09.557Z,100225.81
2022-08-03T23:32:13.253Z,100222.28
2022-08-03T23:34:16.950Z,100226.69
2022-08-03T23:36:30.494Z,100231.47
2022-08-03T23:38:35.433Z,100239.47
2022-08-03T23:40:37.190Z,100234.81
2022-08-03T23:42:39.091Z,100230.06
2022-08-03T23:44:42.772Z,100235.25
2022-08-03T23:46:45.517Z,100231.69
2022-08-03T23:48:48.630Z,100238.00
2022-08-03T23:50:57.396Z,100231.69
2022-08-03T23:53:07.419Z,100230.97
2022-08-03T23:55:21.255Z,100235.69
2022-08-03T23:57:32.479Z,100234.53
2022-08-03T23:59:57.286Z,100231.78
